sensor_id;sensor_type;location;lat;lon;timestamp;pressure;altitude;pressure_sealevel;temperature;humidity
20889;BME280;10604;51.976;7.594;2023-03-18T00:02:11;100102.06;;;11.97;81.24
20889;BME280;10604;51.976;7.594;2023-03-18T00:04:38;100104.72;;;11.97;81.27
20889;BME280;10604;51.976;7.594;2023-03-18T00:07:04;100107.28;;;11.99;81.76
20889;BME280;10604;51.976;7.594;2023-03-18T00:09:30;100108.16;;;11.99;81.84
20889;BME280;10604;51.976;7.594;2023-03-18T00:11:56;100115.16;;;12.00;82.32
20889;BME280;10604;51.976;7.594;2023-03-18T00:14:22;100111.44;;;12.04;81.84
20889;BME280;10604;51.976;7.594;2023-03-18T00:16:48;100110.63;;;12.02;82.34
20889;BME280;10604;51.976;7.594;2023-03-18T00:19:14;100113.28;;;12.02;82.65
20889;BME280;10604;51.976;7.594;2023-03-18T00:21:40;100111.84;;;11.95;82.81
20889;BME280;10604;51.976;7.594;2023-03-18T00:24:05;100106.44;;;11.98;83.05
20889;BME280;10604;51.976;7.594;2023-03-18T00:26:31;100106.84;;;12.08;83.67
20889;BME280;10604;51.976;7.594;2023-03-18T00:28:57;100107.81;;;12.07;83.81
20889;BME280;10604;51.976;7.594;2023-03-18T00:31:24;100104.44;;;12.03;83.84
20889;BME280;10604;51.976;7.594;2023-03-18T00:33:50;100108.16;;;11.99;85.09
20889;BME280;10604;51.976;7.594;2023-03-18T00:36:17;100106.56;;;11.95;85.50
20889;BME280;10604;51.976;7.594;2023-03-18T00:38:45;100108.22;;;11.98;85.94
20889;BME280;10604;51.976;7.594;2023-03-18T00:41:12;100106.91;;;11.88;85.78
20889;BME280;10604;51.976;7.594;2023-03-18T00:43:47;100110.00;;;11.79;86.85
20889;BME280;10604;51.976;7.594;2023-03-18T00:46:27;100103.41;;;11.87;86.99
20889;BME280;10604;51.976;7.594;2023-03-18T00:48:55;100107.00;;;11.86;87.20
20889;BME280;10604;51.976;7.594;2023-03-18T00:51:22;100111.28;;;11.89;86.70
20889;BME280;10604;51.976;7.594;2023-03-18T00:53:54;100108.91;;;11.83;87.51
20889;BME280;10604;51.976;7.594;2023-03-18T00:56:21;100110.69;;;11.82;87.43
20889;BME280;10604;51.976;7.594;2023-03-18T00:58:48;100105.41;;;11.82;88.00
20889;BME280;10604;51.976;7.594;2023-03-18T01:01:14;100102.78;;;11.82;88.10
20889;BME280;10604;51.976;7.594;2023-03-18T01:03:40;100107.13;;;11.83;87.48
20889;BME280;10604;51.976;7.594;2023-03-18T01:06:16;100104.06;;;11.92;87.46
20889;BME280;10604;51.976;7.594;2023-03-18T01:08:42;100101.56;;;11.89;87.74
20889;BME280;10604;51.976;7.594;2023-03-18T01:11:09;100097.88;;;11.93;87.72
20889;BME280;10604;51.976;7.594;2023-03-18T01:13:35;100106.84;;;11.89;88.21
20889;BME280;10604;51.976;7.594;2023-03-18T01:16:02;100114.13;;;11.84;87.29
20889;BME280;10604;51.976;7.594;2023-03-18T01:18:28;100107.00;;;11.86;87.44
20889;BME280;10604;51.976;7.594;2023-03-18T01:20:54;100114.56;;;11.94;87.35
20889;BME280;10604;51.976;7.594;2023-03-18T01:23:21;100110.84;;;11.98;86.65
20889;BME280;10604;51.976;7.594;2023-03-18T01:25:46;100115.28;;;11.97;86.76
20889;BME280;10604;51.976;7.594;2023-03-18T01:28:13;100116.16;;;11.98;87.39
20889;BME280;10604;51.976;7.594;2023-03-18T01:30:39;100114.56;;;11.94;87.19
20889;BME280;10604;51.976;7.594;2023-03-18T01:33:05;100109.44;;;12.09;86.53
20889;BME280;10604;51.976;7.594;2023-03-18T01:35:35;100107.16;;;12.21;85.92
20889;BME280;10604;51.976;7.594;2023-03-18T01:38:02;100104.56;;;12.19;85.48
20889;BME280;10604;51.976;7.594;2023-03-18T01:40:31;100104.81;;;12.14;85.97
20889;BME280;10604;51.976;7.594;2023-03-18T01:43:04;100105.56;;;12.16;85.25
20889;BME280;10604;51.976;7.594;2023-03-18T01:45:39;100091.41;;;12.18;84.58
20889;BME280;10604;51.976;7.594;2023-03-18T01:48:05;100093.00;;;12.22;84.77
20889;BME280;10604;51.976;7.594;2023-03-18T01:50:33;100093.28;;;12.15;84.47
20889;BME280;10604;51.976;7.594;2023-03-18T01:53:09;100102.56;;;12.24;84.78
20889;BME280;10604;51.976;7.594;2023-03-18T01:55:36;100096.34;;;12.25;84.10
20889;BME280;10604;51.976;7.594;2023-03-18T01:58:08;100091.28;;;12.21;84.19
20889;BME280;10604;51.976;7.594;2023-03-18T02:00:40;100086.75;;;12.23;84.51
20889;BME280;10604;51.976;7.594;2023-03-18T02:03:09;100088.78;;;12.18;84.24
20889;BME280;10604;51.976;7.594;2023-03-18T02:05:34;100089.56;;;12.20;84.17
20889;BME280;10604;51.976;7.594;2023-03-18T02:08:01;100108.50;;;12.10;84.10
20889;BME280;10604;51.976;7.594;2023-03-18T02:10:29;100112.41;;;12.02;84.18
20889;BME280;10604;51.976;7.594;2023-03-18T02:12:58;100110.00;;;11.97;84.67
20889;BME280;10604;51.976;7.594;2023-03-18T02:15:25;100111.31;;;12.07;84.38
20889;BME280;10604;51.976;7.594;2023-03-18T02:25:51;100110.41;;;11.88;85.50
20889;BME280;10604;51.976;7.594;2023-03-18T02:28:22;100111.69;;;11.80;85.26
20889;BME280;10604;51.976;7.594;2023-03-18T02:30:55;100122.84;;;11.86;85.80
20889;BME280;10604;51.976;7.594;2023-03-18T02:33:23;100119.81;;;11.75;85.60
20889;BME280;10604;51.976;7.594;2023-03-18T02:36:00;100124.19;;;11.56;85.66
20889;BME280;10604;51.976;7.594;2023-03-18T02:38:26;100123.28;;;11.36;86.50
20889;BME280;10604;51.976;7.594;2023-03-18T02:40:52;100137.66;;;11.29;87.27
20889;BME280;10604;51.976;7.594;2023-03-18T02:43:43;100136.06;;;11.25;87.27
20889;BME280;10604;51.976;7.594;2023-03-18T02:48:58;100134.50;;;11.21;86.77
20889;BME280;10604;51.976;7.594;2023-03-18T02:51:25;100126.91;;;11.14;87.01
20889;BME280;10604;51.976;7.594;2023-03-18T02:53:53;100142.41;;;11.01;87.33
20889;BME280;10604;51.976;7.594;2023-03-18T02:56:20;100135.75;;;10.91;88.17
20889;BME280;10604;51.976;7.594;2023-03-18T02:58:45;100137.84;;;11.05;87.94
20889;BME280;10604;51.976;7.594;2023-03-18T03:01:11;100133.78;;;10.96;88.47
20889;BME280;10604;51.976;7.594;2023-03-18T03:03:36;100138.66;;;10.85;88.92
20889;BME280;10604;51.976;7.594;2023-03-18T03:06:02;100128.72;;;10.91;89.56
20889;BME280;10604;51.976;7.594;2023-03-18T03:08:28;100121.41;;;10.98;89.11
20889;BME280;10604;51.976;7.594;2023-03-18T03:10:54;100125.22;;;10.91;88.91
20889;BME280;10604;51.976;7.594;2023-03-18T03:13:21;100130.13;;;11.00;89.19
20889;BME280;10604;51.976;7.594;2023-03-18T03:15:47;100126.78;;;10.95;89.36
20889;BME280;10604;51.976;7.594;2023-03-18T03:18:14;100135.41;;;11.00;89.69
20889;BME280;10604;51.976;7.594;2023-03-18T03:20:41;100123.72;;;11.06;89.57
20889;BME280;10604;51.976;7.594;2023-03-18T03:23:09;100124.44;;;11.09;89.43
20889;BME280;10604;51.976;7.594;2023-03-18T03:25:35;100114.28;;;11.00;89.28
20889;BME280;10604;51.976;7.594;2023-03-18T03:28:01;100123.25;;;11.16;89.28
20889;BME280;10604;51.976;7.594;2023-03-18T03:30:28;100130.94;;;11.22;89.28
20889;BME280;10604;51.976;7.594;2023-03-18T03:32:54;100119.91;;;11.13;89.20
20889;BME280;10604;51.976;7.594;2023-03-18T03:35:20;100123.72;;;11.06;89.16
20889;BME280;10604;51.976;7.594;2023-03-18T03:37:46;100137.91;;;11.23;89.87
20889;BME280;10604;51.976;7.594;2023-03-18T03:40:14;100132.88;;;11.17;89.31
20889;BME280;10604;51.976;7.594;2023-03-18T03:42:41;100122.59;;;11.11;89.43
20889;BME280;10604;51.976;7.594;2023-03-18T03:45:08;100130.84;;;11.04;89.60
20889;BME280;10604;51.976;7.594;2023-03-18T03:47:34;100147.31;;;11.09;89.70
20889;BME280;10604;51.976;7.594;2023-03-18T03:50:00;100143.06;;;11.06;89.48
20889;BME280;10604;51.976;7.594;2023-03-18T03:52:26;100143.75;;;10.89;89.97
20889;BME280;10604;51.976;7.594;2023-03-18T03:54:53;100141.91;;;10.70;90.53
20889;BME280;10604;51.976;7.594;2023-03-18T03:57:20;100152.16;;;10.77;90.20
20889;BME280;10604;51.976;7.594;2023-03-18T03:59:47;100146.44;;;10.88;90.41
20889;BME280;10604;51.976;7.594;2023-03-18T04:02:13;100153.94;;;10.77;90.86
20889;BME280;10604;51.976;7.594;2023-03-18T04:04:38;100162.63;;;11.01;91.43
20889;BME280;10604;51.976;7.594;2023-03-18T04:07:04;100164.28;;;11.23;91.07
20889;BME280;10604;51.976;7.594;2023-03-18T04:09:29;100162.19;;;11.31;90.29
20889;BME280;10604;51.976;7.594;2023-03-18T04:11:54;100167.38;;;11.34;90.72
20889;BME280;10604;51.976;7.594;2023-03-18T04:14:20;100170.38;;;11.46;90.79
20889;BME280;10604;51.976;7.594;2023-03-18T04:16:46;100175.56;;;11.49;90.68
20889;BME280;10604;51.976;7.594;2023-03-18T04:19:11;100171.84;;;11.53;89.95
20889;BME280;10604;51.976;7.594;2023-03-18T04:21:37;100170.00;;;11.55;89.67
20889;BME280;10604;51.976;7.594;2023-03-18T04:24:03;100172.00;;;11.50;90.26
20889;BME280;10604;51.976;7.594;2023-03-18T04:26:29;100172.78;;;11.72;89.86
20889;BME280;10604;51.976;7.594;2023-03-18T04:28:57;100177.94;;;11.75;89.77
20889;BME280;10604;51.976;7.594;2023-03-18T04:31:22;100171.13;;;11.49;89.73
20889;BME280;10604;51.976;7.594;2023-03-18T04:33:48;100172.91;;;11.28;90.27
20889;BME280;10604;51.976;7.594;2023-03-18T04:36:14;100180.41;;;11.17;91.51
20889;BME280;10604;51.976;7.594;2023-03-18T04:38:39;100177.31;;;11.08;92.05
20889;BME280;10604;51.976;7.594;2023-03-18T04:41:05;100178.94;;;11.10;91.77
20889;BME280;10604;51.976;7.594;2023-03-18T04:43:31;100186.19;;;11.05;91.83
20889;BME280;10604;51.976;7.594;2023-03-18T04:45:56;100179.69;;;10.92;90.93
20889;BME280;10604;51.976;7.594;2023-03-18T04:48:22;100183.25;;;10.91;90.77
20889;BME280;10604;51.976;7.594;2023-03-18T04:50:48;100189.03;;;10.79;91.11
20889;BME280;10604;51.976;7.594;2023-03-18T04:53:13;100186.50;;;10.76;91.43
20889;BME280;10604;51.976;7.594;2023-03-18T04:55:39;100191.09;;;10.71;92.99
20889;BME280;10604;51.976;7.594;2023-03-18T04:58:04;100192.53;;;10.79;92.67
20889;BME280;10604;51.976;7.594;2023-03-18T05:00:30;100187.16;;;10.81;92.96
20889;BME280;10604;51.976;7.594;2023-03-18T05:02:56;100193.69;;;10.94;94.22
20889;BME280;10604;51.976;7.594;2023-03-18T05:05:22;100192.34;;;11.06;94.13
20889;BME280;10604;51.976;7.594;2023-03-18T05:07:47;100193.03;;;11.09;94.17
20889;BME280;10604;51.976;7.594;2023-03-18T05:10:14;100190.97;;;11.17;94.00
20889;BME280;10604;51.976;7.594;2023-03-18T05:12:40;100192.41;;;11.24;93.97
20889;BME280;10604;51.976;7.594;2023-03-18T05:15:06;100197.97;;;11.38;93.50
20889;BME280;10604;51.976;7.594;2023-03-18T05:17:32;100188.81;;;11.47;93.26
20889;BME280;10604;51.976;7.594;2023-03-18T05:19:57;100197.28;;;11.55;92.59
20889;BME280;10604;51.976;7.594;2023-03-18T05:22:23;100196.03;;;11.64;91.63
20889;BME280;10604;51.976;7.594;2023-03-18T05:24:49;100197.97;;;11.59;92.29
20889;BME280;10604;51.976;7.594;2023-03-18T05:27:17;100195.75;;;11.70;92.49
20889;BME280;10604;51.976;7.594;2023-03-18T05:29:43;100193.28;;;11.65;92.78
20889;BME280;10604;51.976;7.594;2023-03-18T05:32:10;100200.81;;;11.76;92.53
20889;BME280;10604;51.976;7.594;2023-03-18T05:34:37;100204.56;;;11.91;91.78
20889;BME280;10604;51.976;7.594;2023-03-18T05:37:04;100195.03;;;11.87;92.42
20889;BME280;10604;51.976;7.594;2023-03-18T05:39:30;100200.09;;;12.11;91.61
20889;BME280;10604;51.976;7.594;2023-03-18T05:41:57;100203.53;;;12.13;90.71
20889;BME280;10604;51.976;7.594;2023-03-18T05:44:23;100211.19;;;12.20;90.30
20889;BME280;10604;51.976;7.594;2023-03-18T05:46:49;100205.16;;;11.97;91.02
20889;BME280;10604;51.976;7.594;2023-03-18T05:49:17;100196.84;;;11.86;91.57
20889;BME280;10604;51.976;7.594;2023-03-18T05:51:43;100206.25;;;11.71;92.08
20889;BME280;10604;51.976;7.594;2023-03-18T05:54:09;100217.56;;;11.75;92.80
20889;BME280;10604;51.976;7.594;2023-03-18T05:56:34;100215.06;;;11.72;92.92
20889;BME280;10604;51.976;7.594;2023-03-18T05:58:59;100217.28;;;11.61;92.70
20889;BME280;10604;51.976;7.594;2023-03-18T06:01:25;100218.72;;;11.68;93.47
20889;BME280;10604;51.976;7.594;2023-03-18T06:03:50;100218.50;;;11.74;92.60
20889;BME280;10604;51.976;7.594;2023-03-18T06:06:17;100221.94;;;11.76;93.21
20889;BME280;10604;51.976;7.594;2023-03-18T06:08:44;100226.81;;;12.05;92.14
20889;BME280;10604;51.976;7.594;2023-03-18T06:11:10;100222.84;;;11.95;92.16
20889;BME280;10604;51.976;7.594;2023-03-18T06:13:36;100229.47;;;12.05;91.98
20889;BME280;10604;51.976;7.594;2023-03-18T06:16:01;100228.00;;;11.98;91.25
20889;BME280;10604;51.976;7.594;2023-03-18T06:18:28;100223.91;;;11.91;91.49
20889;BME280;10604;51.976;7.594;2023-03-18T06:20:53;100235.03;;;11.99;92.21
20889;BME280;10604;51.976;7.594;2023-03-18T06:23:19;100238.44;;;12.01;91.87
20889;BME280;10604;51.976;7.594;2023-03-18T06:25:44;100245.16;;;12.08;91.80
20889;BME280;10604;51.976;7.594;2023-03-18T06:28:11;100248.66;;;12.09;92.27
20889;BME280;10604;51.976;7.594;2023-03-18T06:30:37;100256.50;;;12.31;91.29
20889;BME280;10604;51.976;7.594;2023-03-18T06:33:03;100250.56;;;12.26;91.23
20889;BME280;10604;51.976;7.594;2023-03-18T06:35:28;100249.38;;;12.33;91.25
20889;BME280;10604;51.976;7.594;2023-03-18T06:37:55;100251.44;;;12.45;90.98
20889;BME280;10604;51.976;7.594;2023-03-18T06:40:22;100246.66;;;12.53;89.94
20889;BME280;10604;51.976;7.594;2023-03-18T06:42:49;100250.09;;;12.74;90.06
20889;BME280;10604;51.976;7.594;2023-03-18T06:45:15;100253.13;;;12.85;88.64
20889;BME280;10604;51.976;7.594;2023-03-18T06:47:41;100247.91;;;12.83;89.01
20889;BME280;10604;51.976;7.594;2023-03-18T06:50:08;100248.94;;;12.79;88.86
20889;BME280;10604;51.976;7.594;2023-03-18T06:52:33;100253.97;;;12.85;88.75
20889;BME280;10604;51.976;7.594;2023-03-18T06:54:59;100262.75;;;13.05;87.63
20889;BME280;10604;51.976;7.594;2023-03-18T06:57:24;100249.50;;;12.86;87.84
20889;BME280;10604;51.976;7.594;2023-03-18T06:59:51;100266.56;;;12.80;88.73
20889;BME280;10604;51.976;7.594;2023-03-18T07:02:18;100264.81;;;12.79;88.37
20889;BME280;10604;51.976;7.594;2023-03-18T07:04:43;100273.84;;;12.75;88.85
20889;BME280;10604;51.976;7.594;2023-03-18T07:07:09;100267.84;;;12.72;88.61
20889;BME280;10604;51.976;7.594;2023-03-18T07:09:35;100274.84;;;12.73;89.15
20889;BME280;10604;51.976;7.594;2023-03-18T07:12:00;100277.38;;;12.76;89.11
20889;BME280;10604;51.976;7.594;2023-03-18T07:14:27;100280.72;;;12.79;88.70
20889;BME280;10604;51.976;7.594;2023-03-18T07:16:53;100300.31;;;12.75;88.24
20889;BME280;10604;51.976;7.594;2023-03-18T07:19:19;100296.13;;;12.71;89.41
20889;BME280;10604;51.976;7.594;2023-03-18T07:21:45;100293.31;;;12.74;89.04
20889;BME280;10604;51.976;7.594;2023-03-18T07:24:11;100295.16;;;12.72;89.30
20889;BME280;10604;51.976;7.594;2023-03-18T07:26:36;100295.16;;;12.72;88.83
20889;BME280;10604;51.976;7.594;2023-03-18T07:29:03;100296.53;;;12.81;89.53
20889;BME280;10604;51.976;7.594;2023-03-18T07:31:28;100307.19;;;12.79;88.90
20889;BME280;10604;51.976;7.594;2023-03-18T07:33:54;100305.53;;;12.77;88.63
20889;BME280;10604;51.976;7.594;2023-03-18T07:36:21;100307.91;;;12.83;88.84
20889;BME280;10604;51.976;7.594;2023-03-18T07:38:47;100304.75;;;12.93;88.46
20889;BME280;10604;51.976;7.594;2023-03-18T07:41:12;100311.91;;;13.10;87.65
20889;BME280;10604;51.976;7.594;2023-03-18T07:43:37;100309.91;;;13.15;87.21
20889;BME280;10604;51.976;7.594;2023-03-18T07:46:04;100307.47;;;13.11;86.81
20889;BME280;10604;51.976;7.594;2023-03-18T07:48:30;100310.34;;;13.25;86.57
20889;BME280;10604;51.976;7.594;2023-03-18T07:50:55;100305.25;;;13.39;86.71
20889;BME280;10604;51.976;7.594;2023-03-18T07:53:21;100307.75;;;13.42;86.02
20889;BME280;10604;51.976;7.594;2023-03-18T07:55:46;100310.03;;;13.50;85.84
20889;BME280;10604;51.976;7.594;2023-03-18T07:58:12;100304.59;;;13.70;84.48
20889;BME280;10604;51.976;7.594;2023-03-18T08:00:38;100305.38;;;13.72;84.60
20889;BME280;10604;51.976;7.594;2023-03-18T08:03:03;100304.69;;;13.68;84.34
20889;BME280;10604;51.976;7.594;2023-03-18T08:05:30;100312.63;;;13.86;84.53
20889;BME280;10604;51.976;7.594;2023-03-18T08:07:55;100318.19;;;13.98;83.44
20889;BME280;10604;51.976;7.594;2023-03-18T08:10:21;100328.69;;;14.17;82.31
20889;BME280;10604;51.976;7.594;2023-03-18T08:12:46;100322.47;;;14.01;82.37
20889;BME280;10604;51.976;7.594;2023-03-18T08:15:12;100327.84;;;13.82;83.53
20889;BME280;10604;51.976;7.594;2023-03-18T08:17:38;100334.56;;;13.89;83.68
20889;BME280;10604;51.976;7.594;2023-03-18T08:20:04;100338.69;;;13.95;83.48
20889;BME280;10604;51.976;7.594;2023-03-18T08:22:30;100339.63;;;14.11;83.19
20889;BME280;10604;51.976;7.594;2023-03-18T08:24:55;100345.69;;;14.30;83.19
20889;BME280;10604;51.976;7.594;2023-03-18T08:27:22;100344.06;;;14.28;82.58
20889;BME280;10604;51.976;7.594;2023-03-18T08:29:48;100357.41;;;14.26;82.86
20889;BME280;10604;51.976;7.594;2023-03-18T08:32:14;100352.09;;;14.43;81.57
20889;BME280;10604;51.976;7.594;2023-03-18T08:34:41;100352.03;;;14.45;81.71
20889;BME280;10604;51.976;7.594;2023-03-18T08:37:06;100358.34;;;14.42;82.20
20889;BME280;10604;51.976;7.594;2023-03-18T08:39:32;100351.16;;;14.62;80.82
20889;BME280;10604;51.976;7.594;2023-03-18T08:41:57;100355.44;;;14.64;80.23
20889;BME280;10604;51.976;7.594;2023-03-18T08:44:24;100353.03;;;14.60;81.11
20889;BME280;10604;51.976;7.594;2023-03-18T08:46:49;100355.41;;;14.48;81.79
20889;BME280;10604;51.976;7.594;2023-03-18T08:49:15;100359.19;;;14.60;81.28
20889;BME280;10604;51.976;7.594;2023-03-18T08:51:40;100365.84;;;14.52;81.10
20889;BME280;10604;51.976;7.594;2023-03-18T08:54:06;100368.81;;;14.63;80.43
20889;BME280;10604;51.976;7.594;2023-03-18T08:56:32;100368.81;;;14.63;81.37
20889;BME280;10604;51.976;7.594;2023-03-18T08:58:58;100373.34;;;14.61;80.56
20889;BME280;10604;51.976;7.594;2023-03-18T09:01:23;100373.38;;;14.76;80.97
20889;BME280;10604;51.976;7.594;2023-03-18T09:03:49;100378.81;;;14.91;79.15
20889;BME280;10604;51.976;7.594;2023-03-18T09:06:15;100372.56;;;15.07;78.57
20889;BME280;10604;51.976;7.594;2023-03-18T09:08:41;100368.38;;;15.35;78.45
20889;BME280;10604;51.976;7.594;2023-03-18T09:11:07;100381.28;;;15.58;77.30
20889;BME280;10604;51.976;7.594;2023-03-18T09:13:34;100370.31;;;15.64;76.68
20889;BME280;10604;51.976;7.594;2023-03-18T09:15:59;100372.50;;;15.87;75.89
20889;BME280;10604;51.976;7.594;2023-03-18T09:18:25;100375.44;;;15.83;76.07
20889;BME280;10604;51.976;7.594;2023-03-18T09:20:50;100367.97;;;15.89;74.04
20889;BME280;10604;51.976;7.594;2023-03-18T09:23:16;100375.09;;;15.73;74.66
20889;BME280;10604;51.976;7.594;2023-03-18T09:25:43;100375.34;;;16.14;74.62
20889;BME280;10604;51.976;7.594;2023-03-18T09:28:09;100374.66;;;16.70;72.92
20889;BME280;10604;51.976;7.594;2023-03-18T09:30:35;100384.38;;;16.86;70.63
20889;BME280;10604;51.976;7.594;2023-03-18T09:33:02;100381.97;;;17.38;70.06
20889;BME280;10604;51.976;7.594;2023-03-18T09:35:30;100384.81;;;17.90;68.08
20889;BME280;10604;51.976;7.594;2023-03-18T09:37:55;100387.91;;;17.70;66.78
20889;BME280;10604;51.976;7.594;2023-03-18T09:40:26;100382.09;;;17.63;65.84
20889;BME280;10604;51.976;7.594;2023-03-18T09:48:51;100394.53;;;18.30;65.07
20889;BME280;10604;51.976;7.594;2023-03-18T09:54:22;100404.31;;;17.64;64.39
20889;BME280;10604;51.976;7.594;2023-03-18T09:56:51;100399.31;;;16.88;66.97
20889;BME280;10604;51.976;7.594;2023-03-18T09:59:23;100403.28;;;16.37;68.28
20889;BME280;10604;51.976;7.594;2023-03-18T10:01:54;100403.41;;;16.50;68.83
20889;BME280;10604;51.976;7.594;2023-03-18T10:04:25;100411.38;;;17.65;66.10
20889;BME280;10604;51.976;7.594;2023-03-18T10:07:14;100407.94;;;17.34;64.52
20889;BME280;10604;51.976;7.594;2023-03-18T10:09:42;100413.88;;;17.25;65.51
20889;BME280;10604;51.976;7.594;2023-03-18T10:12:41;100415.16;;;18.02;64.71
20889;BME280;10604;51.976;7.594;2023-03-18T10:15:30;100406.25;;;17.47;64.06
20889;BME280;10604;51.976;7.594;2023-03-18T10:18:00;100407.22;;;16.90;66.49
20889;BME280;10604;51.976;7.594;2023-03-18T10:20:37;100420.72;;;17.29;65.77
20889;BME280;10604;51.976;7.594;2023-03-18T10:26:06;100411.38;;;16.79;65.64
20889;BME280;10604;51.976;7.594;2023-03-18T10:34:00;100418.69;;;18.42;62.35
20889;BME280;10604;51.976;7.594;2023-03-18T10:39:17;100415.31;;;17.86;62.36
20889;BME280;10604;51.976;7.594;2023-03-18T10:41:47;100413.94;;;17.66;63.40
20889;BME280;10604;51.976;7.594;2023-03-18T10:44:26;100427.59;;;17.62;64.09
20889;BME280;10604;51.976;7.594;2023-03-18T10:47:16;100430.59;;;17.70;61.87
20889;BME280;10604;51.976;7.594;2023-03-18T10:50:32;100427.91;;;17.55;62.55
20889;BME280;10604;51.976;7.594;2023-03-18T10:52:46;100431.00;;;17.07;64.20
20889;BME280;10604;51.976;7.594;2023-03-18T10:55:16;100433.09;;;17.30;64.09
20889;BME280;10604;51.976;7.594;2023-03-18T10:57:41;100430.94;;;18.58;59.78
20889;BME280;10604;51.976;7.594;2023-03-18T11:00:25;100429.41;;;19.55;56.54
20889;BME280;10604;51.976;7.594;2023-03-18T11:02:52;100418.94;;;20.13;54.58
20889;BME280;10604;51.976;7.594;2023-03-18T11:05:26;100422.34;;;20.74;51.99
20889;BME280;10604;51.976;7.594;2023-03-18T11:08:02;100421.13;;;20.78;51.01
20889;BME280;10604;51.976;7.594;2023-03-18T11:10:45;100427.19;;;20.57;50.60
20889;BME280;10604;51.976;7.594;2023-03-18T11:13:16;100415.16;;;20.39;51.01
20889;BME280;10604;51.976;7.594;2023-03-18T11:15:49;100419.84;;;20.01;53.25
20889;BME280;10604;51.976;7.594;2023-03-18T11:18:20;100416.53;;;20.45;52.67
20889;BME280;10604;51.976;7.594;2023-03-18T11:20:46;100417.41;;;20.56;50.69
20889;BME280;10604;51.976;7.594;2023-03-18T11:23:36;100430.63;;;20.70;52.37
20889;BME280;10604;51.976;7.594;2023-03-18T11:26:26;100417.91;;;20.50;50.46
20889;BME280;10604;51.976;7.594;2023-03-18T11:28:57;100414.00;;;20.54;50.64
20889;BME280;10604;51.976;7.594;2023-03-18T11:31:23;100411.06;;;19.99;52.10
20889;BME280;10604;51.976;7.594;2023-03-18T11:33:48;100399.22;;;19.66;52.27
20889;BME280;10604;51.976;7.594;2023-03-18T11:36:17;100400.31;;;20.46;53.93
20889;BME280;10604;51.976;7.594;2023-03-18T11:38:58;100398.97;;;20.87;49.37
20889;BME280;10604;51.976;7.594;2023-03-18T11:41:26;100397.81;;;20.32;50.39
20889;BME280;10604;51.976;7.594;2023-03-18T11:43:58;100406.28;;;21.07;51.21
20889;BME280;10604;51.976;7.594;2023-03-18T11:46:28;100395.16;;;20.78;51.47
20889;BME280;10604;51.976;7.594;2023-03-18T11:48:54;100394.84;;;20.94;50.82
20889;BME280;10604;51.976;7.594;2023-03-18T11:54:06;100392.69;;;22.71;47.26
20889;BME280;10604;51.976;7.594;2023-03-18T12:10:58;100385.81;;;20.95;49.19
20889;BME280;10604;51.976;7.594;2023-03-18T12:18:58;100374.34;;;22.76;45.92
20889;BME280;10604;51.976;7.594;2023-03-18T12:21:55;100377.09;;;22.65;44.77
20889;BME280;10604;51.976;7.594;2023-03-18T12:27:47;100377.03;;;21.15;47.08
20889;BME280;10604;51.976;7.594;2023-03-18T12:30:35;100371.72;;;21.69;46.22
20889;BME280;10604;51.976;7.594;2023-03-18T12:33:22;100373.78;;;22.41;45.19
20889;BME280;10604;51.976;7.594;2023-03-18T12:47:09;100382.88;;;20.98;48.82
20889;BME280;10604;51.976;7.594;2023-03-18T12:50:25;100380.47;;;20.38;48.55
20889;BME280;10604;51.976;7.594;2023-03-18T12:53:00;100379.25;;;20.18;49.69
20889;BME280;10604;51.976;7.594;2023-03-18T12:58:12;100377.50;;;22.08;47.34
20889;BME280;10604;51.976;7.594;2023-03-18T13:00:59;100371.84;;;22.84;43.59
20889;BME280;10604;51.976;7.594;2023-03-18T13:03:38;100373.34;;;22.36;43.46
20889;BME280;10604;51.976;7.594;2023-03-18T13:11:44;100371.38;;;21.63;47.26
20889;BME280;10604;51.976;7.594;2023-03-18T13:14:25;100381.19;;;21.19;47.94
20889;BME280;10604;51.976;7.594;2023-03-18T13:16:54;100380.88;;;20.55;49.42
20889;BME280;10604;51.976;7.594;2023-03-18T13:19:20;100369.88;;;20.47;50.04
20889;BME280;10604;51.976;7.594;2023-03-18T13:21:51;100375.59;;;20.43;50.53
20889;BME280;10604;51.976;7.594;2023-03-18T13:24:40;100372.00;;;20.66;50.46
20889;BME280;10604;51.976;7.594;2023-03-18T13:27:33;100371.66;;;20.93;50.02
20889;BME280;10604;51.976;7.594;2023-03-18T13:30:09;100370.47;;;21.30;48.68
20889;BME280;10604;51.976;7.594;2023-03-18T13:38:30;100363.78;;;23.15;43.24
20889;BME280;10604;51.976;7.594;2023-03-18T13:43:28;100354.22;;;21.97;45.00
20889;BME280;10604;51.976;7.594;2023-03-18T13:45:57;100358.72;;;21.54;45.95
20889;BME280;10604;51.976;7.594;2023-03-18T13:48:31;100366.53;;;21.12;47.25
20889;BME280;10604;51.976;7.594;2023-03-18T13:54:00;100349.03;;;23.19;43.99
20889;BME280;10604;51.976;7.594;2023-03-18T13:59:05;100354.88;;;21.24;43.48
20889;BME280;10604;51.976;7.594;2023-03-18T14:01:56;100350.34;;;21.25;45.74
20889;BME280;10604;51.976;7.594;2023-03-18T14:04:28;100338.34;;;21.94;44.45
20889;BME280;10604;51.976;7.594;2023-03-18T14:15:28;100326.50;;;21.54;44.71
20889;BME280;10604;51.976;7.594;2023-03-18T14:17:53;100316.19;;;21.81;44.39
20889;BME280;10604;51.976;7.594;2023-03-18T14:20:24;100324.69;;;21.86;44.21
20889;BME280;10604;51.976;7.594;2023-03-18T14:22:55;100319.34;;;21.43;44.11
20889;BME280;10604;51.976;7.594;2023-03-18T14:25:34;100321.41;;;21.51;44.50
20889;BME280;10604;51.976;7.594;2023-03-18T14:32:58;100315.13;;;20.74;45.23
20889;BME280;10604;51.976;7.594;2023-03-18T14:38:22;100301.63;;;20.29;47.38
20889;BME280;10604;51.976;7.594;2023-03-18T14:40:51;100311.22;;;20.20;46.98
20889;BME280;10604;51.976;7.594;2023-03-18T14:43:37;100308.47;;;20.33;47.54
20889;BME280;10604;51.976;7.594;2023-03-18T14:46:12;100302.91;;;20.58;47.49